Time;durP1;ratioP1;P1;durP2;ratioP2;P2;SDS_P1;SDS_P2;PMS_P1;PMS_P2;Temp;Humidity;BMP_temperature;BMP_pressure;BME280_temperature;BME280_humidity;BME280_pressure;Samples;Min_cycle;Max_cycle;Signal;HPM_P1;HPM_P2
2022/01/13 00:02:10;;;;;;;48.20;16.40;;;;;;;-1.15;100.00;101176.31;103530;1300;24309;-27
2022/01/13 00:04:36;;;;;;;39.90;13.40;;;;;;;-1.14;100.00;101182.05;103566;1300;24161;-29
2022/01/13 00:07:02;;;;;;;57.60;17.80;;;;;;;-1.14;100.00;101180.65;103555;1301;24370;-25
2022/01/13 00:09:29;;;;;;;40.10;19.00;;;;;;;-1.06;100.00;101182.39;103554;1301;24378;-28
2022/01/13 00:11:56;;;;;;;41.30;14.60;;;;;;;-1.07;100.00;101174.34;103575;1300;24443;-26
2022/01/13 00:14:27;;;;;;;44.00;17.80;;;;;;;-1.15;100.00;101180.70;103538;1300;24339;-27
2022/01/13 00:17:10;;;;;;;42.60;16.90;;;;;;;-1.10;100.00;101179.92;103562;1300;24313;-28
2022/01/13 00:24:56;;;;;;;23.40;10.20;;;;;;;-0.77;100.00;101179.27;103561;1300;24422;-27
2022/01/13 00:27:24;;;;;;;29.90;14.30;;;;;;;-0.74;100.00;101175.27;103612;1300;24260;-29
2022/01/13 00:29:50;;;;;;;43.90;18.80;;;;;;;-0.74;100.00;101194.27;103617;1300;24201;-26
2022/01/13 00:32:18;;;;;;;47.00;18.90;;;;;;;-0.46;100.00;101190.31;103539;1300;24367;-26
2022/01/13 00:34:44;;;;;;;53.40;14.90;;;;;;;-0.19;100.00;101204.33;103598;1299;22746;-29
2022/01/13 00:37:10;;;;;;;42.20;15.70;;;;;;;-0.32;100.00;101214.02;103635;1300;24322;-29
2022/01/13 00:39:36;;;;;;;32.00;11.30;;;;;;;-0.47;100.00;101218.00;103584;1300;24173;-29
2022/01/13 00:42:03;;;;;;;23.00;10.10;;;;;;;-0.48;100.00;101218.73;103587;1299;22564;-26
2022/01/13 00:44:35;;;;;;;31.40;10.90;;;;;;;-0.40;100.00;101222.17;103612;1300;24172;-29
2022/01/13 00:47:01;;;;;;;16.10;9.00;;;;;;;-0.20;100.00;101221.67;103562;1300;24301;-28
2022/01/13 00:49:27;;;;;;;36.90;18.50;;;;;;;-0.13;100.00;101227.27;103598;1300;24195;-26
2022/01/13 00:51:54;;;;;;;34.80;13.40;;;;;;;0.27;100.00;101229.66;103572;1301;24341;-25
2022/01/13 00:54:20;;;;;;;28.50;11.50;;;;;;;0.04;100.00;101228.08;103387;1302;24338;-25
2022/01/13 00:56:46;;;;;;;23.00;9.70;;;;;;;0.07;100.00;101221.63;103542;1300;24233;-24
2022/01/13 00:59:13;;;;;;;34.60;17.90;;;;;;;-0.02;100.00;101223.15;103584;1300;24457;-29
2022/01/13 01:01:42;;;;;;;21.80;8.90;;;;;;;0.21;99.96;101230.69;103616;1300;22727;-26
2022/01/13 01:04:08;;;;;;;27.60;11.00;;;;;;;-0.06;100.00;101237.06;103575;1300;24301;-26
2022/01/13 01:06:34;;;;;;;18.30;8.20;;;;;;;-0.09;100.00;101247.47;103547;1298;24218;-26
2022/01/13 01:08:59;;;;;;;32.60;10.40;;;;;;;-0.17;100.00;101253.35;103586;1300;24341;-29
2022/01/13 01:11:26;;;;;;;20.90;9.50;;;;;;;-0.13;100.00;101240.09;103550;1300;24282;-29
2022/01/13 01:13:53;;;;;;;36.30;13.10;;;;;;;-0.06;100.00;101215.95;103634;1300;24231;-31
2022/01/13 01:16:20;;;;;;;29.90;9.60;;;;;;;0.25;100.00;101187.13;103474;1300;22518;-30
2022/01/13 01:24:08;;;;;;;17.30;11.60;;;;;;;0.40;97.90;101179.75;103488;1300;24224;-26
2022/01/13 01:29:03;;;;;;;20.40;9.20;;;;;;;0.26;98.20;101172.09;103591;1300;25244;-29
2022/01/13 01:31:31;;;;;;;33.90;19.50;;;;;;;0.19;99.01;101153.99;103616;1300;24252;-26
2022/01/13 01:36:27;;;;;;;13.40;9.10;;;;;;;0.31;98.73;101136.39;103512;1300;24269;-26
2022/01/13 01:38:55;;;;;;;26.50;10.50;;;;;;;0.61;97.67;101128.62;103505;1300;22730;-26
2022/01/13 01:41:21;;;;;;;25.00;11.10;;;;;;;0.36;97.86;101130.27;103579;1300;24349;-28
2022/01/13 01:43:49;;;;;;;30.00;19.70;;;;;;;0.53;97.76;101140.91;103522;1299;24352;-29
2022/01/13 01:46:15;;;;;;;31.60;11.60;;;;;;;0.63;96.98;101137.72;103506;1300;24341;-25
2022/01/13 01:48:41;;;;;;;33.00;12.50;;;;;;;0.54;97.19;101146.88;103566;1300;24380;-31
2022/01/13 01:51:07;;;;;;;17.50;8.40;;;;;;;0.38;97.99;101164.35;103483;1300;24299;-28
2022/01/13 01:53:33;;;;;;;22.70;9.50;;;;;;;0.35;98.40;101180.36;103424;1302;24301;-26
2022/01/13 01:55:59;;;;;;;33.10;17.80;;;;;;;0.13;99.56;101175.84;103523;1301;22544;-26
2022/01/13 01:58:27;;;;;;;24.10;10.60;;;;;;;0.48;98.76;101175.27;103571;1300;24182;-29
2022/01/13 02:00:54;;;;;;;20.30;12.30;;;;;;;0.71;97.41;101169.64;103533;1301;24311;-31
2022/01/13 02:03:20;;;;;;;35.50;14.10;;;;;;;0.50;96.94;101163.64;103555;1300;24288;-25
2022/01/13 02:05:47;;;;;;;23.30;12.70;;;;;;;0.62;97.41;101165.97;103563;1302;24341;-29
2022/01/13 02:08:13;;;;;;;30.40;10.20;;;;;;;0.49;97.84;101172.17;103433;1302;24216;-25
2022/01/13 02:10:39;;;;;;;13.20;7.40;;;;;;;0.34;98.63;101173.92;103508;1300;24448;-31
2022/01/13 02:13:09;;;;;;;11.00;7.90;;;;;;;0.43;98.80;101168.65;103560;1300;24281;-27
2022/01/13 02:15:47;;;;;;;27.20;15.70;;;;;;;0.39;98.54;101166.56;103560;1300;24187;-27
2022/01/13 02:18:13;;;;;;;28.40;16.30;;;;;;;0.67;97.30;101163.19;103515;1302;24346;-29
2022/01/13 02:20:41;;;;;;;18.80;10.90;;;;;;;0.59;97.12;101159.11;103543;1300;24305;-28
2022/01/13 02:23:07;;;;;;;29.90;19.30;;;;;;;0.56;97.30;101157.83;103534;1300;24260;-29
2022/01/13 02:25:33;;;;;;;39.80;10.10;;;;;;;0.85;96.05;101152.60;103599;1299;24263;-31
2022/01/13 02:27:59;;;;;;;28.90;15.70;;;;;;;0.51;97.27;101149.17;103557;1300;22940;-25
2022/01/13 02:30:25;;;;;;;17.00;9.90;;;;;;;0.51;97.02;101151.95;103474;1300;24411;-25
2022/01/13 02:32:51;;;;;;;29.20;14.70;;;;;;;0.43;97.54;101142.59;103561;1300;24353;-31
2022/01/13 02:35:17;;;;;;;35.80;17.20;;;;;;;0.59;97.77;101140.56;103555;1300;24218;-29
2022/01/13 02:37:43;;;;;;;20.10;13.40;;;;;;;0.72;96.03;101142.12;103496;1300;24223;-31
2022/01/13 02:40:10;;;;;;;27.20;8.00;;;;;;;0.40;97.09;101148.70;103550;1300;24354;-29
2022/01/13 02:42:36;;;;;;;20.50;11.00;;;;;;;0.45;98.17;101156.73;103505;1300;24219;-28
2022/01/13 02:45:03;;;;;;;19.80;9.00;;;;;;;0.36;98.21;101166.94;103529;1300;24313;-25
2022/01/13 02:50:02;;;;;;;12.40;7.40;;;;;;;0.26;98.86;101162.73;103528;1300;24438;-29
2022/01/13 02:52:28;;;;;;;24.90;10.00;;;;;;;0.39;98.86;101155.86;103554;1300;24322;-26
2022/01/13 02:54:53;;;;;;;13.90;7.60;;;;;;;0.55;97.23;101155.27;103541;1300;22639;-26
2022/01/13 02:57:19;;;;;;;22.30;7.40;;;;;;;0.72;95.70;101158.70;103508;1300;24201;-29
2022/01/13 02:59:45;;;;;;;20.20;10.30;;;;;;;0.40;96.55;101154.71;103593;1301;24326;-25
2022/01/13 03:02:11;;;;;;;9.30;5.10;;;;;;;0.35;97.08;101160.31;103567;1300;24337;-29
2022/01/13 03:04:37;;;;;;;18.50;10.50;;;;;;;0.33;97.24;101157.41;103494;1302;24253;-29
2022/01/13 03:07:04;;;;;;;12.00;6.60;;;;;;;0.69;95.07;101155.89;103525;1300;24299;-29
2022/01/13 03:09:30;;;;;;;23.00;11.50;;;;;;;0.61;95.34;101145.73;103577;1300;24382;-29
2022/01/13 03:11:55;;;;;;;13.60;7.30;;;;;;;0.70;94.67;101142.23;103626;1300;24176;-26
2022/01/13 03:14:21;;;;;;;7.70;4.90;;;;;;;0.53;95.29;101136.14;103576;1300;22521;-28
2022/01/13 03:16:47;;;;;;;13.50;10.70;;;;;;;0.68;94.81;101128.58;103503;1302;24442;-28
2022/01/13 03:19:13;;;;;;;28.80;13.90;;;;;;;0.84;93.93;101114.09;103525;1300;24324;-29
2022/01/13 03:21:39;;;;;;;17.60;9.50;;;;;;;0.95;93.00;101116.04;103567;1300;22505;-25
2022/01/13 03:24:09;;;;;;;18.10;10.10;;;;;;;0.52;94.66;101122.44;103576;1300;24479;-28
2022/01/13 03:26:35;;;;;;;22.10;12.40;;;;;;;1.00;93.86;101114.84;103534;1300;23882;-31
2022/01/13 03:31:30;;;;;;;19.00;10.80;;;;;;;0.70;93.08;101113.35;103565;1299;24186;-29
2022/01/13 03:33:56;;;;;;;18.50;8.40;;;;;;;0.67;93.52;101111.02;103529;1300;24332;-30
2022/01/13 03:36:22;;;;;;;4.90;4.30;;;;;;;0.85;92.55;101108.53;103542;1302;24248;-28
2022/01/13 03:38:48;;;;;;;32.90;8.50;;;;;;;0.76;92.56;101105.88;103556;1300;24400;-29
2022/01/13 03:41:14;;;;;;;12.40;8.10;;;;;;;0.76;93.06;101101.34;103568;1300;24283;-26
2022/01/13 03:43:40;;;;;;;11.60;7.30;;;;;;;0.69;93.23;101098.23;103589;1300;24260;-29
2022/01/13 03:55:15;;;;;;;17.90;7.00;;;;;;;0.77;93.04;101102.00;103502;1302;25377;-25
2022/01/13 03:58:05;;;;;;;23.40;11.10;;;;;;;0.68;93.63;101103.72;103528;1300;24238;-29
2022/01/13 04:00:45;;;;;;;21.40;10.30;;;;;;;0.95;92.43;101108.11;103553;1300;24219;-27
2022/01/13 04:03:11;;;;;;;11.20;8.10;;;;;;;1.11;91.58;101110.13;103495;1300;24286;-29
2022/01/13 04:06:00;;;;;;;22.50;11.60;;;;;;;0.85;91.96;101121.57;103513;1302;24229;-29
2022/01/13 04:08:27;;;;;;;15.50;9.40;;;;;;;0.70;93.26;101131.51;103577;1302;23925;-25
2022/01/13 04:10:53;;;;;;;15.20;9.20;;;;;;;0.71;92.74;101130.01;103182;1300;461149;-31
2022/01/13 04:15:49;;;;;;;25.90;16.50;;;;;;;0.76;93.16;101120.73;103626;1302;25440;-25
2022/01/13 04:18:15;;;;;;;20.10;13.50;;;;;;;1.09;91.25;101121.35;103567;1302;24447;-28
2022/01/13 04:20:41;;;;;;;22.60;9.10;;;;;;;0.78;91.79;101122.88;103456;1300;24182;-25
2022/01/13 04:23:07;;;;;;;18.90;12.50;;;;;;;0.67;93.01;101124.60;103485;1302;24155;-28
2022/01/13 04:25:34;;;;;;;12.50;7.70;;;;;;;1.26;90.61;101113.09;103531;1302;24312;-29
2022/01/13 04:28:03;;;;;;;29.70;18.60;;;;;;;1.01;90.60;101113.04;103558;1300;24299;-25
2022/01/13 04:32:59;;;;;;;21.20;12.90;;;;;;;0.97;90.73;101120.51;103525;1300;24268;-29
2022/01/13 04:35:25;;;;;;;27.40;11.60;;;;;;;0.86;91.67;101122.41;103549;1300;24205;-26
2022/01/13 04:37:51;;;;;;;28.10;15.20;;;;;;;0.79;92.50;101126.52;103508;1300;24211;-27
2022/01/13 04:40:17;;;;;;;41.90;18.20;;;;;;;0.96;92.03;101118.13;103537;1302;24343;-25
2022/01/13 04:42:45;;;;;;;29.70;11.00;;;;;;;1.17;90.48;101116.98;103492;1300;24294;-28
2022/01/13 04:45:11;;;;;;;33.90;20.40;;;;;;;0.74;92.40;101116.25;103555;1302;24335;-25
2022/01/13 04:47:37;;;;;;;27.60;15.90;;;;;;;0.89;91.99;101102.66;103531;1300;24292;-28
2022/01/13 04:50:04;;;;;;;36.80;22.80;;;;;;;1.06;90.88;101091.37;103568;1302;24213;-28
2022/01/13 04:52:30;;;;;;;17.90;13.20;;;;;;;0.92;90.05;101088.73;103582;1300;22639;-28
2022/01/13 04:54:56;;;;;;;17.70;9.90;;;;;;;0.97;90.36;101091.43;103559;1302;24185;-31
2022/01/13 04:57:22;;;;;;;32.30;15.70;;;;;;;0.66;91.41;101090.29;103523;1302;24353;-28
2022/01/13 04:59:49;;;;;;;33.70;20.30;;;;;;;0.82;90.63;101085.27;103607;1300;24482;-26
2022/01/13 05:02:16;;;;;;;28.30;13.50;;;;;;;0.94;89.96;101088.45;103572;1300;24359;-26
2022/01/13 05:04:42;;;;;;;30.60;18.90;;;;;;;0.84;90.22;101089.04;103540;1300;24178;-25
2022/01/13 05:07:08;;;;;;;41.70;21.40;;;;;;;1.00;89.40;101100.23;103541;1300;24427;-26
2022/01/13 05:09:34;;;;;;;30.50;14.50;;;;;;;0.62;91.02;101102.90;103563;1300;24175;-27
2022/01/13 05:12:01;;;;;;;34.10;17.10;;;;;;;0.93;89.66;101101.88;103524;1300;24214;-26
2022/01/13 05:14:27;;;;;;;27.10;15.90;;;;;;;0.82;90.10;101092.28;103510;1300;24658;-29
2022/01/13 05:17:01;;;;;;;36.50;19.80;;;;;;;0.82;89.14;101093.38;103544;1300;24214;-24
2022/01/13 05:19:35;;;;;;;34.00;13.70;;;;;;;0.55;90.48;101097.82;103519;1302;24352;-26
2022/01/13 05:24:30;;;;;;;25.40;13.30;;;;;;;0.87;89.17;101101.89;103542;1300;24212;-29
2022/01/13 05:26:56;;;;;;;34.60;16.50;;;;;;;1.04;87.94;101104.73;103571;1300;24228;-29
2022/01/13 05:29:22;;;;;;;27.50;16.50;;;;;;;0.73;89.19;101094.79;103622;1302;24286;-28
2022/01/13 05:31:49;;;;;;;43.30;20.70;;;;;;;0.49;90.03;101086.55;103538;1301;24214;-28
2022/01/13 05:34:15;;;;;;;37.80;14.70;;;;;;;0.66;89.70;101076.02;103579;1301;24228;-29
2022/01/13 05:36:41;;;;;;;45.70;19.70;;;;;;;0.61;89.57;101073.50;103585;1300;24165;-30
2022/01/13 05:39:07;;;;;;;31.50;18.20;;;;;;;0.77;88.57;101068.83;103567;1300;24213;-31
2022/01/13 05:41:33;;;;;;;26.90;17.20;;;;;;;0.65;88.91;101062.86;103514;1300;24139;-29
2022/01/13 05:44:00;;;;;;;22.20;15.70;;;;;;;0.60;89.00;101066.31;103553;1300;24175;-30
2022/01/13 05:46:26;;;;;;;38.80;20.10;;;;;;;0.66;89.11;101062.98;103569;1300;24185;-27
2022/01/13 05:48:54;;;;;;;25.40;14.40;;;;;;;0.75;88.05;101058.88;103565;1300;22948;-29
2022/01/13 05:51:20;;;;;;;47.70;11.80;;;;;;;0.36;89.54;101061.39;103562;1300;22523;-28
2022/01/13 05:53:46;;;;;;;29.10;17.20;;;;;;;0.49;89.68;101067.84;103524;1301;22729;-29
2022/01/13 05:56:13;;;;;;;16.70;10.20;;;;;;;0.81;87.95;101066.78;103556;1300;24277;-25
2022/01/13 05:58:39;;;;;;;32.00;14.80;;;;;;;0.61;88.88;101072.07;103589;1300;24370;-29
2022/01/13 06:01:05;;;;;;;30.10;9.80;;;;;;;0.83;87.79;101076.39;103532;1302;24439;-28
2022/01/13 06:03:31;;;;;;;16.70;10.00;;;;;;;0.72;88.32;101079.87;103509;1300;24195;-26
2022/01/13 06:05:57;;;;;;;25.60;14.90;;;;;;;0.69;88.14;101075.98;103543;1301;24294;-29
2022/01/13 06:08:23;;;;;;;40.80;16.50;;;;;;;0.69;88.85;101077.21;103420;1302;24176;-28
2022/01/13 06:10:49;;;;;;;23.00;9.10;;;;;;;0.55;89.29;101071.59;103584;1300;24243;-27
2022/01/13 06:13:16;;;;;;;19.50;9.50;;;;;;;0.51;89.48;101071.08;103506;1302;22515;-25
2022/01/13 06:15:41;;;;;;;17.20;9.90;;;;;;;0.45;89.67;101076.34;103476;1300;24324;-29
2022/01/13 06:18:11;;;;;;;11.50;5.90;;;;;;;0.60;89.41;101074.08;103486;1302;24194;-31
2022/01/13 06:20:39;;;;;;;14.30;6.90;;;;;;;0.46;90.12;101076.48;103556;1300;24296;-26
2022/01/13 06:23:05;;;;;;;13.10;6.50;;;;;;;0.36;90.41;101069.11;103566;1302;22517;-26
2022/01/13 06:25:31;;;;;;;64.40;18.10;;;;;;;0.41;90.21;101077.67;103545;1302;24175;-28
2022/01/13 06:27:57;;;;;;;15.10;8.20;;;;;;;0.78;88.93;101076.35;103608;1300;24316;-31
2022/01/13 06:30:23;;;;;;;37.40;19.80;;;;;;;0.65;89.38;101084.36;103555;1302;24338;-26
2022/01/13 06:32:49;;;;;;;18.90;8.80;;;;;;;0.61;89.83;101076.44;103524;1300;24305;-26
2022/01/13 06:35:15;;;;;;;21.50;12.60;;;;;;;0.59;89.84;101073.41;103651;1300;24186;-31
2022/01/13 06:37:41;;;;;;;9.20;6.70;;;;;;;0.38;91.16;101074.15;103553;1301;24292;-29
2022/01/13 06:40:08;;;;;;;21.00;12.60;;;;;;;0.56;90.88;101062.86;103482;1300;24312;-31
2022/01/13 06:42:34;;;;;;;19.00;8.10;;;;;;;0.53;90.59;101054.94;103636;1300;24897;-26
2022/01/13 06:45:00;;;;;;;10.10;6.30;;;;;;;0.49;90.92;101044.41;103568;1300;24345;-29
2022/01/13 06:47:27;;;;;;;24.80;8.60;;;;;;;0.40;91.91;101043.38;103493;1300;24175;-26
2022/01/13 06:49:52;;;;;;;17.60;9.80;;;;;;;0.28;92.37;101049.52;103562;1302;22599;-26
2022/01/13 06:52:18;;;;;;;17.90;10.40;;;;;;;0.31;92.59;101059.02;103525;1300;24292;-27
2022/01/13 06:54:44;;;;;;;26.10;9.10;;;;;;;0.45;91.86;101068.76;103522;1302;24215;-31
2022/01/13 06:57:10;;;;;;;18.20;12.30;;;;;;;0.50;91.79;101075.39;103648;1300;24215;-25
2022/01/13 06:59:36;;;;;;;16.40;9.20;;;;;;;0.61;90.99;101086.15;103517;1300;24342;-26
2022/01/13 07:02:03;;;;;;;20.00;11.50;;;;;;;0.66;90.58;101093.79;103545;1302;24252;-29
2022/01/13 07:04:29;;;;;;;25.90;9.30;;;;;;;0.69;90.35;101094.48;103542;1301;24311;-26
2022/01/13 07:06:55;;;;;;;16.00;7.90;;;;;;;0.80;89.63;101094.02;103558;1300;22529;-25
2022/01/13 07:09:21;;;;;;;12.20;5.80;;;;;;;0.87;88.57;101089.58;103601;1302;24174;-29
2022/01/13 07:11:47;;;;;;;15.00;6.90;;;;;;;0.55;90.51;101078.45;103588;1302;24200;-31
2022/01/13 07:14:13;;;;;;;17.50;8.50;;;;;;;0.56;90.60;101067.23;103590;1300;24216;-28
2022/01/13 07:16:40;;;;;;;13.20;7.30;;;;;;;0.48;91.18;101059.45;103561;1302;24290;-26
2022/01/13 07:19:06;;;;;;;14.30;7.90;;;;;;;0.42;91.61;101058.77;103583;1300;24261;-25
2022/01/13 07:21:33;;;;;;;21.20;8.30;;;;;;;0.47;91.37;101051.20;103579;1302;24263;-25
2022/01/13 07:23:59;;;;;;;12.90;6.90;;;;;;;0.52;91.20;101050.57;103528;1300;24336;-25
2022/01/13 07:26:25;;;;;;;11.50;6.20;;;;;;;0.45;91.33;101051.70;103601;1300;22509;-29
2022/01/13 07:28:50;;;;;;;22.40;7.80;;;;;;;0.59;90.84;101058.13;103577;1302;24284;-28
2022/01/13 07:31:17;;;;;;;19.90;9.50;;;;;;;0.75;90.41;101056.08;103488;1302;24225;-30
2022/01/13 07:33:43;;;;;;;17.80;8.30;;;;;;;0.66;90.53;101049.20;103518;1302;24229;-26
2022/01/13 07:36:09;;;;;;;22.20;8.20;;;;;;;0.62;90.98;101040.64;103577;1301;24330;-31
2022/01/13 07:38:35;;;;;;;17.90;9.60;;;;;;;0.53;91.77;101038.53;103463;1300;24330;-26
2022/01/13 07:41:01;;;;;;;13.20;6.20;;;;;;;0.47;92.30;101031.48;103608;1302;24191;-26
2022/01/13 07:43:27;;;;;;;22.70;10.20;;;;;;;0.50;92.26;101034.82;103665;1300;24252;-26
2022/01/13 07:45:53;;;;;;;19.00;9.80;;;;;;;0.41;93.15;101029.07;103555;1300;24487;-29
2022/01/13 07:48:20;;;;;;;28.80;10.80;;;;;;;0.27;93.81;101021.05;103538;1300;24348;-26
2022/01/13 07:50:46;;;;;;;35.10;13.20;;;;;;;0.22;94.19;101019.58;103585;1300;22515;-31
2022/01/13 07:53:12;;;;;;;18.80;9.40;;;;;;;0.16;94.28;101018.89;103579;1302;24460;-29
2022/01/13 07:55:38;;;;;;;24.50;10.90;;;;;;;0.20;94.43;101015.83;103522;1302;24169;-27
2022/01/13 07:58:04;;;;;;;27.60;10.00;;;;;;;0.21;94.37;101010.30;103567;1302;24186;-29
2022/01/13 08:00:30;;;;;;;32.10;13.20;;;;;;;0.71;91.38;101006.24;103563;1300;22521;-26
2022/01/13 08:02:56;;;;;;;20.00;10.40;;;;;;;0.60;91.75;101003.02;103557;1300;24290;-26
2022/01/13 08:05:22;;;;;;;28.80;11.00;;;;;;;0.37;91.74;101012.91;103524;1300;24323;-26
2022/01/13 08:07:48;;;;;;;20.10;8.80;;;;;;;0.51;91.93;101015.94;103532;1302;22650;-28
2022/01/13 08:10:14;;;;;;;20.10;8.50;;;;;;;0.40;91.57;101013.25;103479;1302;22518;-29
2022/01/13 08:12:41;;;;;;;36.10;12.30;;;;;;;0.42;91.46;100994.95;103517;1300;24271;-26
2022/01/13 08:15:12;;;;;;;28.90;9.20;;;;;;;0.32;91.96;100974.73;103583;1302;24252;-27
2022/01/13 08:20:09;;;;;;;34.30;10.80;;;;;;;0.36;91.54;100981.23;103504;1300;24294;-25
2022/01/13 08:22:36;;;;;;;18.40;11.10;;;;;;;0.61;90.45;100977.27;103563;1302;24238;-28
2022/01/13 08:25:02;;;;;;;24.30;8.90;;;;;;;0.62;90.45;100975.78;103463;1300;24883;-28
2022/01/13 08:27:28;;;;;;;17.90;10.70;;;;;;;0.69;90.15;100977.98;103511;1302;22531;-29
2022/01/13 08:29:54;;;;;;;19.00;9.00;;;;;;;0.96;88.60;100968.01;103590;1302;24173;-27
2022/01/13 08:32:20;;;;;;;17.20;9.10;;;;;;;0.80;89.35;100960.54;103552;1300;22645;-28
2022/01/13 08:34:46;;;;;;;32.20;12.00;;;;;;;0.89;88.87;100972.85;103484;1300;24301;-29
2022/01/13 08:37:12;;;;;;;20.00;9.20;;;;;;;0.69;89.99;100977.27;103546;1302;24174;-27
2022/01/13 08:39:43;;;;;;;16.60;7.50;;;;;;;0.95;88.78;100980.41;103483;1302;24335;-26
2022/01/13 08:42:11;;;;;;;29.70;10.10;;;;;;;0.85;89.09;100983.73;103577;1302;24214;-28
2022/01/13 08:44:37;;;;;;;31.80;11.70;;;;;;;0.92;88.57;100982.41;103546;1302;24207;-31
2022/01/13 08:47:04;;;;;;;37.20;9.40;;;;;;;0.97;88.02;100981.86;103532;1302;24262;-28
2022/01/13 08:49:30;;;;;;;48.60;11.70;;;;;;;1.12;87.56;100978.50;103495;1300;24414;-25
2022/01/13 08:51:56;;;;;;;31.70;11.70;;;;;;;0.79;88.85;100984.44;103550;1302;24192;-26
2022/01/13 08:54:22;;;;;;;21.00;9.00;;;;;;;0.80;89.42;100991.21;103509;1300;24175;-30
2022/01/13 08:56:48;;;;;;;14.30;7.00;;;;;;;0.80;89.25;101001.30;103514;1301;25143;-29
2022/01/13 08:59:15;;;;;;;30.00;13.30;;;;;;;0.95;88.28;101000.21;103482;1302;22576;-26
2022/01/13 09:01:41;;;;;;;24.50;10.30;;;;;;;1.12;87.77;101002.30;103551;1302;24324;-30
2022/01/13 09:04:08;;;;;;;14.90;7.60;;;;;;;1.09;87.33;101012.33;103580;1300;22506;-29
2022/01/13 09:06:34;;;;;;;14.00;8.60;;;;;;;1.20;87.20;101019.64;103602;1300;24163;-29
2022/01/13 09:09:00;;;;;;;21.60;8.90;;;;;;;1.10;87.62;101024.98;103484;1302;24332;-29
2022/01/13 09:11:26;;;;;;;27.60;10.50;;;;;;;1.19;87.00;101031.65;103625;1302;24178;-25
2022/01/13 09:13:57;;;;;;;19.20;7.80;;;;;;;1.27;86.52;101034.16;103479;1300;24215;-28
2022/01/13 09:16:24;;;;;;;17.00;7.40;;;;;;;1.24;86.61;101029.73;103521;1302;24302;-26
2022/01/13 09:21:19;;;;;;;36.30;10.70;;;;;;;1.10;87.13;101029.41;103526;1300;22526;-28
2022/01/13 09:23:45;;;;;;;17.30;8.10;;;;;;;1.09;87.46;101026.45;103558;1300;24401;-26
2022/01/13 09:26:11;;;;;;;27.10;12.60;;;;;;;1.20;87.04;101028.97;103549;1300;24383;-24
2022/01/13 09:28:37;;;;;;;22.50;10.90;;;;;;;1.61;84.80;101023.14;103572;1300;24172;-27
2022/01/13 09:31:03;;;;;;;16.20;9.40;;;;;;;1.53;84.99;101015.23;103533;1300;24298;-28
2022/01/13 09:33:29;;;;;;;21.20;8.80;;;;;;;1.40;85.45;101010.59;103624;1300;24224;-31
2022/01/13 09:35:55;;;;;;;21.40;8.30;;;;;;;1.35;85.80;101010.52;103564;1300;24321;-26
2022/01/13 09:38:21;;;;;;;20.30;7.60;;;;;;;1.36;85.33;101007.77;103733;1300;24336;-26
2022/01/13 09:40:47;;;;;;;24.20;10.30;;;;;;;1.51;85.55;100996.27;103636;1300;24206;-26
2022/01/13 09:43:13;;;;;;;33.30;9.10;;;;;;;1.60;84.87;100988.84;103663;1300;24285;-25
2022/01/13 09:45:39;;;;;;;20.10;8.30;;;;;;;1.51;84.91;100983.37;103629;1300;23895;-25
2022/01/13 09:48:05;;;;;;;31.70;12.40;;;;;;;1.55;84.76;100991.76;103630;1300;24306;-29
2022/01/13 09:50:31;;;;;;;33.90;10.40;;;;;;;1.97;83.11;100987.10;103752;1300;24170;-31
2022/01/13 09:52:57;;;;;;;13.30;6.90;;;;;;;1.86;83.62;100979.30;103838;1300;22638;-26
2022/01/13 09:55:24;;;;;;;25.80;10.00;;;;;;;1.77;83.62;100971.94;103643;1300;24191;-30
2022/01/13 09:57:51;;;;;;;13.80;8.30;;;;;;;1.72;84.11;100971.25;103776;1300;24211;-30
2022/01/13 10:00:20;;;;;;;33.20;9.80;;;;;;;1.88;83.63;100970.03;103758;1300;22962;-29
2022/01/13 10:02:45;;;;;;;30.10;10.90;;;;;;;1.87;83.28;100960.02;103872;1300;24186;-24
2022/01/13 10:05:12;;;;;;;29.20;9.60;;;;;;;2.05;82.82;100960.34;103642;1300;22518;-29
2022/01/13 10:07:41;;;;;;;23.10;15.20;;;;;;;1.97;83.06;100955.61;103719;1300;24304;-27
2022/01/13 10:10:12;;;;;;;21.40;8.10;;;;;;;2.42;81.12;100950.20;103773;1300;24359;-26
2022/01/13 10:12:39;;;;;;;38.60;10.40;;;;;;;2.11;82.27;100943.86;103738;1300;22988;-26
2022/01/13 10:17:42;;;;;;;32.00;7.90;;;;;;;2.03;82.93;100942.83;103614;1300;24233;-29
2022/01/13 10:20:11;;;;;;;13.20;6.40;;;;;;;2.16;82.55;100950.61;103614;1300;26006;-29
2022/01/13 10:22:37;;;;;;;19.30;7.70;;;;;;;2.28;82.16;100945.77;103569;1300;24289;-26
2022/01/13 10:25:03;;;;;;;21.80;7.10;;;;;;;2.01;83.22;100946.34;103721;1302;22545;-26
2022/01/13 10:27:31;;;;;;;13.70;9.60;;;;;;;2.10;83.02;100948.93;103687;1300;24257;-31
2022/01/13 10:30:02;;;;;;;33.40;10.10;;;;;;;2.16;83.47;100949.19;103720;1300;23125;-28
2022/01/13 10:32:32;;;;;;;19.30;9.10;;;;;;;2.19;83.39;100940.88;103677;1300;24197;-29
2022/01/13 10:35:03;;;;;;;25.00;13.10;;;;;;;2.28;83.14;100939.52;103651;1300;22613;-24
2022/01/13 10:37:30;;;;;;;35.10;14.90;;;;;;;2.32;83.24;100934.48;103685;1300;24357;-26
2022/01/13 10:39:58;;;;;;;35.60;19.30;;;;;;;2.71;81.78;100928.77;103699;1300;24332;-24
2022/01/13 10:45:00;;;;;;;20.90;14.30;;;;;;;2.21;84.31;100924.10;103590;1300;24250;-25
2022/01/13 10:47:27;;;;;;;31.70;12.20;;;;;;;2.97;81.81;100916.27;103631;1300;24315;-25
2022/01/13 10:49:53;;;;;;;34.30;10.60;;;;;;;2.91;81.52;100918.37;103595;1300;24404;-29
2022/01/13 10:52:26;;;;;;;32.30;14.90;;;;;;;2.46;83.81;100908.48;103521;1302;24313;-31
2022/01/13 10:54:54;;;;;;;19.00;6.00;;;;;;;2.63;83.35;100901.38;103606;1300;24225;-31
2022/01/13 10:57:22;;;;;;;18.60;10.70;;;;;;;2.57;83.92;100897.98;103678;1300;24481;-30
2022/01/13 10:59:48;;;;;;;27.50;12.90;;;;;;;2.51;84.05;100906.48;103603;1302;24198;-30
2022/01/13 11:02:14;;;;;;;19.30;11.40;;;;;;;2.80;83.23;100906.73;103728;1300;24284;-31
2022/01/13 11:04:40;;;;;;;33.50;16.10;;;;;;;2.70;83.75;100902.30;103845;1300;24372;-27
2022/01/13 11:07:12;;;;;;;25.10;15.00;;;;;;;2.83;83.32;100898.34;103818;1300;24303;-27
2022/01/13 11:09:42;;;;;;;30.90;10.50;;;;;;;2.59;84.52;100892.36;103806;1300;22512;-27
2022/01/13 11:12:10;;;;;;;41.70;13.90;;;;;;;2.65;84.83;100899.00;103684;1300;24197;-32
2022/01/13 11:14:42;;;;;;;24.10;10.10;;;;;;;2.85;83.68;100888.52;103742;1300;22845;-25
2022/01/13 11:17:10;;;;;;;26.80;12.10;;;;;;;2.73;83.85;100885.52;103623;1300;24252;-27
2022/01/13 11:19:39;;;;;;;26.30;12.00;;;;;;;3.11;82.71;100888.05;103676;1300;22522;-28
2022/01/13 11:22:05;;;;;;;28.50;13.90;;;;;;;2.80;83.85;100888.72;103733;1300;24314;-29
2022/01/13 11:24:31;;;;;;;27.60;12.50;;;;;;;2.93;83.21;100889.73;103707;1300;24169;-26
2022/01/13 11:26:57;;;;;;;26.40;14.40;;;;;;;2.62;85.04;100891.92;103689;1300;24249;-29
2022/01/13 11:29:23;;;;;;;24.60;14.70;;;;;;;2.89;84.43;100883.80;103565;1300;24288;-29
2022/01/13 11:31:50;;;;;;;18.50;7.50;;;;;;;3.07;84.15;100877.40;103590;1300;24331;-29
2022/01/13 11:34:17;;;;;;;41.00;16.20;;;;;;;3.01;84.74;100876.89;103559;1300;24397;-26
2022/01/13 11:36:43;;;;;;;30.00;17.30;;;;;;;2.86;85.00;100882.63;103605;1300;24267;-28
2022/01/13 11:39:10;;;;;;;31.90;12.30;;;;;;;2.83;86.25;100882.66;103577;1300;24327;-26
2022/01/13 11:41:59;;;;;;;27.30;12.70;;;;;;;2.90;86.30;100873.52;103604;1300;22518;-29
2022/01/13 11:44:25;;;;;;;25.20;12.50;;;;;;;3.01;86.54;100870.38;103597;1300;24192;-25
2022/01/13 11:46:51;;;;;;;24.20;12.50;;;;;;;3.09;86.17;100863.79;103597;1300;24237;-29
2022/01/13 11:49:24;;;;;;;16.20;8.10;;;;;;;3.21;85.75;100850.67;103611;1300;24308;-25
2022/01/13 11:51:57;;;;;;;22.20;13.20;;;;;;;2.82;87.57;100862.55;103671;1300;22665;-24
2022/01/13 11:54:26;;;;;;;18.30;12.30;;;;;;;2.74;88.34;100861.52;103759;1300;22611;-25
2022/01/13 11:56:59;;;;;;;19.30;9.40;;;;;;;3.15;86.74;100857.64;103628;1300;24196;-26
2022/01/13 11:59:24;;;;;;;20.20;10.20;;;;;;;3.17;86.82;100845.50;103618;1300;24229;-29